Flight Track Log - Related Links

Times and Time Zones

All times are in EST time to prevent confusion due to time zone crossing. See the SKW7363 flight status page for this flight to view local times or setup timezone preferences in your user account.


Time Position Orientation Groundspeed Altitude Reporting Facility
EST Latitude Longitude Course Direction KTS MPH feet Rate Location/Type
Tue 07:01:38 PM 40.7975 -111.9994 310° West 137 158 5,000  Level Salt Lake Center
Tue 07:02:51 PM 40.8256 -112.0436 310° West 151 174 7,500 1,915 Climbing Salt Lake Center
Tue 07:03:12 PM 40.8297 -112.0578 291° West 156 180 8,000 2,262 Climbing Salt Lake Center
Tue 07:03:52 PM 40.8528 -112.0942 310° West 165 190 9,800 2,262 Climbing Salt Lake Center
Tue 07:04:13 PM 40.8608 -112.1031 320° Northwest 165 190 10,300 1,418 Climbing Salt Lake Center
Tue 07:04:47 PM 40.8839 -112.1317 317° Northwest 174 200 11,100 1,065 Climbing Salt Lake Center
Tue 07:05:15 PM 40.8994 -112.1494 319° Northwest 198 228 11,400 1,082 Climbing Salt Lake Center
Tue 07:05:48 PM 40.9264 -112.1853 315° West 222 255 12,200 1,279 Climbing Salt Lake Center
Tue 07:06:16 PM 40.9431 -112.2072 315° West 223 257 12,700 1,133 Climbing Salt Lake Center
Tue 07:07:18 PM 40.9875 -112.2644 316° Northwest 223 257 13,900 629 Climbing Salt Lake Center
Tue 07:08:20 PM 41.0369 -112.3250 317° Northwest 249 287 14,000 341 Climbing Salt Lake Center
Tue 07:09:21 PM 41.0992 -112.4042 316° Northwest 256 295 14,600 1,512 Climbing Salt Lake Center
Tue 07:10:23 PM 41.1442 -112.4589 318° Northwest 219 252 17,100 2,000 Climbing Salt Lake Center
Tue 07:11:24 PM 41.1775 -112.5011 316° Northwest 166 191 18,700 1,463 Climbing Salt Lake Center
Tue 07:12:26 PM 41.2122 -112.5481 315° West 177 204 20,100 1,258 Climbing Salt Lake Center
Tue 07:13:28 PM 41.2478 -112.5953 315° West 181 208 21,300 927 Climbing Salt Lake Center
Tue 07:14:29 PM 41.2853 -112.6472 314° West 196 226 22,000 344 Climbing Salt Lake Center
Tue 07:15:30 PM 41.3311 -112.7119 313° West 237 273 22,000  Level Salt Lake Center
Tue 07:16:32 PM 41.3764 -112.7858 309° West 258 297 22,000  Level Salt Lake Center
Tue 07:17:33 PM 41.4300 -112.8772 308° West 259 298 22,000  Level Salt Lake Center
Tue 07:18:35 PM 41.4828 -112.9444 316° Northwest 261 300 22,000  Level Salt Lake Center
Tue 07:19:36 PM 41.5308 -113.0142 313° West 259 298 22,000  Level Salt Lake Center
Tue 07:20:38 PM 41.5786 -113.0869 311° West 260 299 22,000  Level Salt Lake Center
Tue 07:21:39 PM 41.6289 -113.1589 313° West 263 303 22,000  Level Salt Lake Center
Tue 07:22:41 PM 41.6781 -113.2306 313° West 263 303 22,000  Level Salt Lake Center
Tue 07:23:42 PM 41.7278 -113.3042 312° West 266 306 22,000  Level Salt Lake Center
Tue 07:24:44 PM 41.7764 -113.3783 311° West 267 307 22,000  Level Salt Lake Center
Tue 07:25:46 PM 41.8342 -113.4664 311° West 263 303 22,000 -195 Level Salt Lake Center
Tue 07:26:47 PM 41.8831 -113.5447 310° West 272 313 21,600 -878 Descending Salt Lake Center
Tue 07:27:49 PM 41.9322 -113.6222 310° West 275 316 20,200 -1,512 Descending Salt Lake Center
Tue 07:28:50 PM 41.9836 -113.7000 312° West 277 319 18,500 -1,122 Descending Salt Lake Center
Tue 07:29:52 PM 42.0350 -113.7786 311° West 280 322 17,900 -829 Descending Salt Lake Center
Tue 07:30:53 PM 42.0858 -113.8631 309° West 287 330 16,800 -1,073 Descending Salt Lake Center
Tue 07:31:55 PM 42.1375 -113.9442 311° West 287 330 15,700 -976 Descending Salt Lake Center
Tue 07:32:56 PM 42.1892 -114.0242 311° West 285 328 14,800 -976 Descending Salt Lake Center
Tue 07:33:58 PM 42.2478 -114.1192 310° West 278 320 13,700 -871 Descending Salt Lake Center
Tue 07:35:00 PM 42.3000 -114.1997 311° West 286 329 13,000 -878 Descending Salt Lake Center
Tue 07:36:01 PM 42.3386 -114.2611 310° West 207 238 11,900 -1,561 Descending Salt Lake Center
Tue 07:37:03 PM 42.3717 -114.3136 310° West 197 227 9,800 -2,439 Descending Salt Lake Center
Tue 07:38:04 PM 42.4092 -114.3631 316° Northwest 194 223 6,900 -1,610 Descending Salt Lake Center
Tue 07:39:06 PM 42.4508 -114.4158 317° Northwest 199 229 6,500 -387 Descending Salt Lake Center

Login

Don't have an account? Register now (free) for customized features, flight alerts, and more!